createdAt,value
2022-10-17T00:01:05.946Z,101410.88
2022-10-17T00:03:37.438Z,101411.31
2022-10-17T00:06:15.027Z,101417.16
2022-10-17T00:08:44.205Z,101409.53
2022-10-17T00:11:20.363Z,101401.41
2022-10-17T00:13:49.723Z,101401.63
2022-10-17T00:16:29.122Z,101407.03
2022-10-17T00:18:57.041Z,101405.16
2022-10-17T00:21:26.456Z,101404.00
2022-10-17T00:23:54.653Z,101402.13
2022-10-17T00:26:22.829Z,101403.66
2022-10-17T00:28:52.495Z,101402.22
2022-10-17T00:31:22.635Z,101410.44
2022-10-17T00:33:50.860Z,101403.91
2022-10-17T00:36:25.591Z,101397.81
2022-10-17T00:38:58.285Z,101392.44
2022-10-17T00:41:33.373Z,101397.59
2022-10-17T00:44:28.129Z,101403.44
2022-10-17T00:46:59.381Z,101405.81
2022-10-17T00:49:31.660Z,101407.97
2022-10-17T00:52:15.953Z,101406.03
2022-10-17T00:54:56.161Z,101406.22
2022-10-17T00:57:24.838Z,101406.31
2022-10-17T00:59:56.337Z,101398.22
2022-10-17T01:02:24.760Z,101394.69
2022-10-17T01:04:57.177Z,101392.00
2022-10-17T01:07:26.506Z,101397.75
2022-10-17T01:09:54.778Z,101404.63
2022-10-17T01:12:36.781Z,101391.75
2022-10-17T01:15:23.867Z,101398.31
2022-10-17T01:18:34.598Z,101396.50
2022-10-17T01:22:13.437Z,101395.13
2022-10-17T01:24:52.616Z,101397.59
2022-10-17T01:27:45.527Z,101395.56
2022-10-17T01:30:31.066Z,101401.63
2022-10-17T01:33:31.197Z,101403.44
2022-10-17T01:36:11.777Z,101409.50
2022-10-17T01:38:49.745Z,101405.25
2022-10-17T01:41:33.087Z,101403.88
2022-10-17T01:44:10.457Z,101406.91
2022-10-17T01:46:48.911Z,101403.88
2022-10-17T01:49:24.368Z,101402.41
2022-10-17T01:52:04.083Z,101398.25
2022-10-17T01:54:46.037Z,101398.72
2022-10-17T01:57:42.411Z,101395.69
2022-10-17T02:00:17.096Z,101402.19
2022-10-17T02:02:48.302Z,101405.69
2022-10-17T02:05:21.944Z,101403.44
2022-10-17T02:07:49.728Z,101403.78
2022-10-17T02:10:33.501Z,101414.91
2022-10-17T02:13:36.033Z,101414.91
2022-10-17T02:16:14.171Z,101422.56
2022-10-17T02:19:15.084Z,101430.22
2022-10-17T02:22:02.022Z,101438.53
2022-10-17T02:24:41.485Z,101433.34
2022-10-17T02:27:12.546Z,101433.53
2022-10-17T02:30:46.604Z,101443.41
2022-10-17T02:33:44.992Z,101441.38
2022-10-17T02:36:23.412Z,101433.28
2022-10-17T02:38:53.548Z,101433.75
2022-10-17T02:41:23.835Z,101432.28
2022-10-17T02:43:55.657Z,101437.34
2022-10-17T02:46:28.707Z,101439.84
2022-10-17T02:49:24.523Z,101437.59
2022-10-17T02:52:27.159Z,101433.13
2022-10-17T02:55:12.725Z,101445.97
2022-10-17T02:57:48.657Z,101440.56
2022-10-17T03:00:19.844Z,101443.25
2022-10-17T03:02:52.500Z,101453.13
2022-10-17T03:05:27.875Z,101448.38
2022-10-17T03:07:56.889Z,101448.38
2022-10-17T03:10:25.495Z,101455.91
2022-10-17T03:12:54.611Z,101455.78
2022-10-17T03:15:22.555Z,101454.88
2022-10-17T03:17:50.287Z,101457.91
2022-10-17T03:20:18.891Z,101455.75
2022-10-17T03:22:46.852Z,101454.38
2022-10-17T03:25:14.446Z,101465.38
2022-10-17T03:27:42.255Z,101466.69
2022-10-17T03:30:10.700Z,101467.69
2022-10-17T03:32:39.868Z,101475.16
2022-10-17T03:35:10.200Z,101472.34
2022-10-17T03:37:42.037Z,101475.56
2022-10-17T03:40:10.355Z,101473.88
2022-10-17T03:42:38.186Z,101468.31
2022-10-17T03:45:06.276Z,101472.00
2022-10-17T03:47:34.096Z,101471.22
2022-10-17T03:50:02.141Z,101471.22
2022-10-17T03:52:33.098Z,101471.88
2022-10-17T03:55:01.926Z,101482.66
2022-10-17T03:57:30.103Z,101485.34
2022-10-17T03:59:58.489Z,101488.03
2022-10-17T04:02:26.263Z,101491.84
2022-10-17T04:04:53.811Z,101487.09
2022-10-17T04:07:21.658Z,101496.31
2022-10-17T04:09:49.582Z,101497.88
2022-10-17T04:12:22.820Z,101499.19
2022-10-17T04:14:50.513Z,101499.53
2022-10-17T04:17:18.678Z,101491.31
2022-10-17T04:19:46.698Z,101500.34
2022-10-17T04:22:17.809Z,101506.38
2022-10-17T04:24:45.459Z,101507.53
2022-10-17T04:27:31.547Z,101505.78
2022-10-17T04:29:59.291Z,101509.13
2022-10-17T04:32:27.307Z,101500.59
2022-10-17T04:35:02.584Z,101506.63
2022-10-17T04:37:30.698Z,101511.53
2022-10-17T04:40:00.009Z,101519.94
2022-10-17T04:42:31.408Z,101519.16
2022-10-17T04:44:59.173Z,101522.38
2022-10-17T04:47:28.043Z,101524.59
2022-10-17T04:49:56.617Z,101520.63
2022-10-17T04:52:25.343Z,101532.03
2022-10-17T04:54:53.761Z,101533.50
2022-10-17T04:57:22.621Z,101532.88
2022-10-17T04:59:57.998Z,101538.41
2022-10-17T05:02:48.783Z,101540.19
2022-10-17T05:05:16.493Z,101537.50
2022-10-17T05:07:47.000Z,101532.09
2022-10-17T05:10:19.066Z,101541.28
2022-10-17T05:12:50.982Z,101536.84
2022-10-17T05:15:21.952Z,101535.25
2022-10-17T05:17:54.155Z,101543.81
2022-10-17T05:20:21.687Z,101543.81
2022-10-17T05:22:50.295Z,101542.25
2022-10-17T05:25:21.592Z,101544.47
2022-10-17T05:27:49.319Z,101550.63
2022-10-17T05:30:18.625Z,101549.84
2022-10-17T05:32:46.832Z,101554.41
2022-10-17T05:35:14.737Z,101557.13
2022-10-17T05:37:42.714Z,101563.78
2022-10-17T05:40:12.278Z,101570.72
2022-10-17T05:42:47.812Z,101571.06
2022-10-17T05:45:16.806Z,101570.41
2022-10-17T05:47:44.700Z,101574.50
2022-10-17T05:50:13.238Z,101575.78
2022-10-17T05:52:59.362Z,101578.13
2022-10-17T05:55:27.276Z,101583.78
2022-10-17T05:57:55.097Z,101581.06
2022-10-17T06:00:24.895Z,101579.91
2022-10-17T06:02:58.560Z,101587.31
2022-10-17T06:05:26.264Z,101585.81
2022-10-17T06:07:57.071Z,101599.59
2022-10-17T06:10:27.949Z,101601.47
2022-10-17T06:12:57.653Z,101600.94
2022-10-17T06:15:26.565Z,101607.13
2022-10-17T06:18:07.443Z,101606.78
2022-10-17T06:20:35.216Z,101608.72
2022-10-17T06:23:03.867Z,101606.47
2022-10-17T06:25:48.487Z,101613.47
2022-10-17T06:28:16.224Z,101610.31
2022-10-17T06:30:43.662Z,101610.63
2022-10-17T06:33:14.813Z,101615.38
2022-10-17T06:35:42.722Z,101620.41
2022-10-17T06:38:10.918Z,101627.53
2022-10-17T06:40:38.554Z,101631.50
2022-10-17T06:43:09.790Z,101639.22
2022-10-17T06:46:18.555Z,101625.34
2022-10-17T06:48:56.817Z,101635.28
2022-10-17T06:51:37.785Z,101625.84
2022-10-17T06:54:08.533Z,101631.06
2022-10-17T06:56:48.751Z,101631.31
2022-10-17T06:59:22.735Z,101634.63
2022-10-17T07:01:56.392Z,101640.94
2022-10-17T07:04:26.026Z,101642.66
2022-10-17T07:06:54.665Z,101640.84
2022-10-17T07:09:25.136Z,101637.28
2022-10-17T07:11:52.701Z,101652.34
2022-10-17T07:14:20.609Z,101654.94
2022-10-17T07:16:49.953Z,101656.56
2022-10-17T07:19:24.062Z,101665.81
2022-10-17T07:21:51.942Z,101659.53
2022-10-17T07:24:19.838Z,101667.44
2022-10-17T07:26:52.403Z,101671.97
2022-10-17T07:29:20.817Z,101670.59
2022-10-17T07:32:04.097Z,101668.59
2022-10-17T07:34:31.898Z,101666.47
2022-10-17T07:37:00.618Z,101662.31
2022-10-17T07:39:30.043Z,101667.94
2022-10-17T07:41:58.882Z,101666.22
2022-10-17T07:44:26.784Z,101657.22
2022-10-17T07:46:55.159Z,101658.28
2022-10-17T07:49:22.921Z,101651.81
2022-10-17T07:51:50.492Z,101657.13
2022-10-17T07:54:18.280Z,101653.06
2022-10-17T07:56:50.530Z,101659.59
2022-10-17T07:59:19.671Z,101652.53
2022-10-17T08:01:47.365Z,101656.25
2022-10-17T08:04:16.851Z,101656.03
2022-10-17T08:06:46.930Z,101661.97
2022-10-17T08:09:14.721Z,101664.34
2022-10-17T08:11:44.140Z,101658.59
2022-10-17T08:14:13.909Z,101652.47
2022-10-17T08:16:41.286Z,101663.75
2022-10-17T08:19:11.406Z,101666.47
2022-10-17T08:21:39.092Z,101663.16
2022-10-17T08:24:06.921Z,101660.56
2022-10-17T08:26:36.266Z,101675.78
2022-10-17T08:29:05.831Z,101670.47
2022-10-17T08:31:33.440Z,101676.06
2022-10-17T08:34:01.200Z,101679.69
2022-10-17T08:36:29.226Z,101681.47
2022-10-17T08:38:57.087Z,101687.97
2022-10-17T08:41:45.690Z,101679.31
2022-10-17T08:45:10.319Z,101681.53
2022-10-17T08:47:54.937Z,101687.22
2022-10-17T08:50:51.078Z,101682.75
2022-10-17T08:53:40.929Z,101675.91
2022-10-17T08:56:48.776Z,101687.84
2022-10-17T08:59:31.720Z,101690.00
2022-10-17T09:02:21.157Z,101694.47
2022-10-17T09:05:09.495Z,101690.00
2022-10-17T09:07:53.369Z,101684.03
2022-10-17T09:10:26.332Z,101686.94
2022-10-17T09:13:31.069Z,101694.47
2022-10-17T09:16:45.746Z,101703.09
2022-10-17T09:19:23.200Z,101691.97
2022-10-17T09:22:12.831Z,101695.59
2022-10-17T09:25:00.000Z,101693.41
2022-10-17T09:28:02.015Z,101696.63
2022-10-17T09:31:18.539Z,101692.41
2022-10-17T09:33:54.305Z,101688.19
2022-10-17T09:36:33.448Z,101694.94
2022-10-17T09:39:14.971Z,101693.06
2022-10-17T09:41:57.022Z,101697.94
2022-10-17T09:44:33.505Z,101695.78
2022-10-17T09:47:23.834Z,101705.31
2022-10-17T09:49:51.759Z,101701.88
2022-10-17T09:52:27.976Z,101701.66
2022-10-17T09:55:07.705Z,101700.63
2022-10-17T09:57:57.894Z,101696.53
2022-10-17T10:00:39.921Z,101699.81
2022-10-17T10:03:27.656Z,101692.00
2022-10-17T10:06:02.810Z,101700.59
2022-10-17T10:08:49.791Z,101694.84
2022-10-17T10:11:19.917Z,101695.25
2022-10-17T10:13:49.404Z,101693.00
2022-10-17T10:16:33.031Z,101694.53
2022-10-17T10:19:03.611Z,101694.53
2022-10-17T10:21:34.553Z,101692.31
2022-10-17T10:24:13.961Z,101691.56
2022-10-17T10:26:48.879Z,101697.09
2022-10-17T10:29:34.781Z,101691.75
2022-10-17T10:32:40.125Z,101693.44
2022-10-17T10:35:24.066Z,101688.16
2022-10-17T10:37:56.780Z,101694.06
2022-10-17T10:40:51.143Z,101687.53
2022-10-17T10:43:51.637Z,101680.19
2022-10-17T10:46:30.021Z,101688.09
2022-10-17T10:49:03.530Z,101680.00
2022-10-17T10:51:47.655Z,101684.03
2022-10-17T10:54:40.195Z,101676.81
2022-10-17T10:57:20.077Z,101681.25
2022-10-17T10:59:56.614Z,101684.88
2022-10-17T11:13:12.259Z,101670.19
2022-10-17T11:15:53.702Z,101665.66
2022-10-17T11:18:38.579Z,101660.31
2022-10-17T11:21:19.893Z,101671.31
2022-10-17T11:24:09.114Z,101658.19
2022-10-17T11:26:46.588Z,101665.28
2022-10-17T11:29:14.318Z,101659.50
2022-10-17T11:31:53.050Z,101657.63
2022-10-17T11:34:32.943Z,101663.91
2022-10-17T11:37:11.778Z,101651.47
2022-10-17T11:39:56.433Z,101657.75
2022-10-17T11:42:40.568Z,101651.56
2022-10-17T11:45:22.795Z,101649.31
2022-10-17T11:47:58.849Z,101650.09
2022-10-17T11:54:18.812Z,101639.25
2022-10-17T11:57:32.751Z,101647.88
2022-10-17T12:00:45.111Z,101647.50
2022-10-17T12:03:56.942Z,101637.00
2022-10-17T12:06:58.845Z,101637.78
2022-10-17T12:09:43.752Z,101637.00
2022-10-17T12:12:23.230Z,101640.19
2022-10-17T12:14:50.669Z,101638.63
2022-10-17T12:17:40.560Z,101640.56
2022-10-17T12:20:30.725Z,101636.28
2022-10-17T12:23:13.287Z,101633.91
2022-10-17T12:25:56.954Z,101638.59
2022-10-17T12:28:33.167Z,101621.75
2022-10-17T12:31:19.055Z,101631.06
2022-10-17T12:33:46.672Z,101623.97
2022-10-17T12:36:17.319Z,101627.47
2022-10-17T12:38:50.406Z,101636.00
2022-10-17T12:41:40.940Z,101624.97
2022-10-17T12:44:15.151Z,101617.41
2022-10-17T12:46:55.933Z,101615.25
2022-10-17T12:49:23.990Z,101615.09
2022-10-17T12:52:31.551Z,101611.78
2022-10-17T12:55:12.501Z,101603.03
2022-10-17T12:58:03.965Z,101608.31
2022-10-17T13:00:43.870Z,101603.88
2022-10-17T13:03:48.350Z,101602.94
2022-10-17T13:06:27.006Z,101606.59
2022-10-17T13:09:04.166Z,101601.22
2022-10-17T13:11:36.315Z,101608.06
2022-10-17T13:14:15.460Z,101608.69
2022-10-17T13:17:07.446Z,101607.63
2022-10-17T13:19:46.586Z,101597.84
2022-10-17T13:22:28.151Z,101604.13
2022-10-17T13:25:16.943Z,101599.84
2022-10-17T13:27:45.500Z,101590.03
2022-10-17T13:30:29.398Z,101588.59
2022-10-17T13:33:01.274Z,101596.69
2022-10-17T13:35:58.961Z,101585.06
2022-10-17T13:38:34.802Z,101590.78
2022-10-17T13:41:34.313Z,101594.09
2022-10-17T13:43:59.831Z,101592.91
2022-10-17T13:46:39.570Z,101591.91
2022-10-17T13:49:28.149Z,101579.91
2022-10-17T13:51:58.384Z,101589.09
2022-10-17T13:54:33.042Z,101580.59
2022-10-17T13:57:02.585Z,101592.31
2022-10-17T13:59:55.067Z,101595.88
2022-10-17T14:02:31.919Z,101592.63
2022-10-17T14:05:18.359Z,101595.03
2022-10-17T14:08:16.933Z,101591.50
2022-10-17T14:10:45.755Z,101588.31
2022-10-17T14:13:26.863Z,101588.13
2022-10-17T14:15:59.028Z,101587.06
2022-10-17T14:18:36.627Z,101599.53
2022-10-17T14:24:22.378Z,101590.81
2022-10-17T14:26:59.568Z,101589.69
2022-10-17T14:29:52.955Z,101584.31
2022-10-17T14:32:22.424Z,101587.47
2022-10-17T14:35:05.601Z,101574.63
2022-10-17T14:37:48.853Z,101578.84
2022-10-17T14:40:23.502Z,101579.47
2022-10-17T14:42:58.173Z,101584.78
2022-10-17T14:45:33.101Z,101581.56
2022-10-17T14:48:17.236Z,101578.03
2022-10-17T14:51:11.822Z,101578.09
2022-10-17T14:53:41.775Z,101578.31
2022-10-17T14:56:33.855Z,101581.66
2022-10-17T14:59:03.036Z,101578.22
2022-10-17T15:01:30.526Z,101581.56
2022-10-17T15:03:58.228Z,101582.38
2022-10-17T15:06:34.399Z,101581.06
2022-10-17T15:09:02.908Z,101581.47
2022-10-17T15:11:30.348Z,101582.72
2022-10-17T15:13:58.124Z,101576.75
2022-10-17T15:16:31.193Z,101589.66
2022-10-17T15:18:59.041Z,101586.03
2022-10-17T15:21:38.417Z,101583.91
2022-10-17T15:24:09.839Z,101582.22
2022-10-17T15:26:37.880Z,101576.75
2022-10-17T15:29:05.790Z,101572.94
2022-10-17T15:31:33.657Z,101581.13
2022-10-17T15:34:01.620Z,101581.03
2022-10-17T15:36:51.887Z,101576.53
2022-10-17T15:39:19.702Z,101578.72
2022-10-17T15:41:48.161Z,101577.75
2022-10-17T15:44:16.024Z,101577.63
2022-10-17T15:46:43.858Z,101586.75
2022-10-17T15:49:18.656Z,101581.88
2022-10-17T15:51:47.781Z,101583.25
2022-10-17T15:54:18.140Z,101588.88
2022-10-17T15:56:54.840Z,101582.88
2022-10-17T15:59:30.071Z,101589.34
2022-10-17T16:01:58.220Z,101600.47
2022-10-17T16:04:27.524Z,101596.41
2022-10-17T16:06:55.026Z,101601.72
2022-10-17T16:09:22.768Z,101596.09
2022-10-17T16:11:50.915Z,101603.72
2022-10-17T16:14:18.676Z,101597.72
2022-10-17T16:16:46.243Z,101609.56
2022-10-17T16:19:14.820Z,101607.00
2022-10-17T16:21:42.721Z,101613.06
2022-10-17T16:24:14.783Z,101613.66
2022-10-17T16:26:42.331Z,101616.97
2022-10-17T16:29:10.253Z,101610.94
2022-10-17T16:31:45.011Z,101610.41
2022-10-17T16:34:14.960Z,101615.97
2022-10-17T16:36:43.457Z,101615.00
2022-10-17T16:39:11.179Z,101617.06
2022-10-17T16:41:40.089Z,101619.97
2022-10-17T16:44:11.115Z,101617.06
2022-10-17T16:46:38.647Z,101621.81
2022-10-17T16:49:07.560Z,101622.75
2022-10-17T16:51:35.971Z,101628.38
2022-10-17T16:54:04.774Z,101625.41
2022-10-17T16:56:33.050Z,101631.81
2022-10-17T16:59:01.811Z,101631.66
2022-10-17T17:01:29.802Z,101627.63
2022-10-17T17:03:58.116Z,101631.41
2022-10-17T17:06:29.010Z,101629.31
2022-10-17T17:08:57.524Z,101628.75
2022-10-17T17:11:28.109Z,101623.97
2022-10-17T17:13:58.480Z,101624.13
2022-10-17T17:16:27.538Z,101631.72
2022-10-17T17:19:10.551Z,101626.56
2022-10-17T17:21:38.494Z,101632.47
2022-10-17T17:24:06.744Z,101636.66
2022-10-17T17:26:39.142Z,101637.69
2022-10-17T17:29:07.213Z,101632.97
2022-10-17T17:31:35.834Z,101631.63
2022-10-17T17:34:03.702Z,101635.50
2022-10-17T17:36:35.024Z,101638.19
2022-10-17T17:39:07.690Z,101634.59
2022-10-17T17:41:35.224Z,101632.59
2022-10-17T17:44:04.192Z,101636.31
2022-10-17T17:46:32.862Z,101640.06
2022-10-17T17:49:01.139Z,101634.97
2022-10-17T17:51:29.459Z,101635.78
2022-10-17T17:53:57.905Z,101635.31
2022-10-17T17:56:28.992Z,101643.00
2022-10-17T17:59:02.324Z,101640.66
2022-10-17T18:01:39.238Z,101645.19
2022-10-17T18:04:09.249Z,101640.34
2022-10-17T18:06:37.829Z,101645.31
2022-10-17T18:09:07.613Z,101650.06
2022-10-17T18:11:45.463Z,101646.50
2022-10-17T18:14:15.040Z,101639.84
2022-10-17T18:16:42.724Z,101650.69
2022-10-17T18:19:11.453Z,101649.78
2022-10-17T18:21:39.073Z,101653.97
2022-10-17T18:24:07.591Z,101647.28
2022-10-17T18:26:35.532Z,101654.19
2022-10-17T18:29:04.502Z,101661.84
2022-10-17T18:31:38.113Z,101656.31
2022-10-17T18:34:06.907Z,101652.41
2022-10-17T18:36:35.722Z,101654.66
2022-10-17T18:39:04.930Z,101658.03
2022-10-17T18:41:33.141Z,101663.00
2022-10-17T18:44:01.221Z,101660.97
2022-10-17T18:46:36.227Z,101657.00
2022-10-17T18:49:04.212Z,101668.97
2022-10-17T18:51:31.991Z,101665.44
2022-10-17T18:53:59.995Z,101650.03
2022-10-17T18:56:28.990Z,101651.91
2022-10-17T18:58:57.508Z,101660.50
2022-10-17T19:01:28.131Z,101667.47
2022-10-17T19:03:58.868Z,101662.06
2022-10-17T19:06:32.045Z,101672.88
2022-10-17T19:09:03.969Z,101664.31
2022-10-17T19:11:33.519Z,101666.25
2022-10-17T19:14:05.567Z,101666.59
2022-10-17T19:16:36.566Z,101674.03
2022-10-17T19:19:15.357Z,101665.91
2022-10-17T19:21:44.097Z,101677.53
2022-10-17T19:24:18.289Z,101677.53
2022-10-17T19:26:50.264Z,101672.44
2022-10-17T19:29:19.066Z,101663.44
2022-10-17T19:31:47.839Z,101665.56
2022-10-17T19:34:17.933Z,101663.19
2022-10-17T19:36:46.165Z,101658.34
2022-10-17T19:39:18.819Z,101661.41
2022-10-17T19:41:48.373Z,101662.97
2022-10-17T19:44:17.316Z,101664.56
2022-10-17T19:46:46.792Z,101658.00
2022-10-17T19:49:15.679Z,101651.47
2022-10-17T19:51:43.743Z,101649.22
2022-10-17T19:54:12.369Z,101652.25
2022-10-17T19:56:43.090Z,101647.53
2022-10-17T19:59:14.712Z,101650.44
2022-10-17T20:01:43.106Z,101651.38
2022-10-17T20:04:12.388Z,101660.03
2022-10-17T20:06:41.944Z,101656.41
2022-10-17T20:09:17.379Z,101659.78
2022-10-17T20:11:45.882Z,101651.56
2022-10-17T20:14:13.626Z,101651.00
2022-10-17T20:16:41.284Z,101649.28
2022-10-17T20:19:13.180Z,101655.19
2022-10-17T20:21:40.690Z,101653.91
2022-10-17T20:24:13.997Z,101647.63
2022-10-17T20:26:42.850Z,101645.13
2022-10-17T20:29:19.351Z,101641.72
2022-10-17T20:31:48.108Z,101640.81
2022-10-17T20:34:18.259Z,101649.13
2022-10-17T20:36:46.651Z,101634.25
2022-10-17T20:39:16.680Z,101643.00
2022-10-17T20:41:45.635Z,101637.34
2022-10-17T20:44:14.073Z,101641.53
2022-10-17T20:46:48.786Z,101641.53
2022-10-17T20:49:25.641Z,101645.19
2022-10-17T20:51:53.143Z,101642.94
2022-10-17T20:54:22.348Z,101639.59
2022-10-17T20:56:49.938Z,101639.59
2022-10-17T20:59:18.643Z,101640.06
2022-10-17T21:01:47.282Z,101638.50
2022-10-17T21:04:44.836Z,101644.81
2022-10-17T21:07:02.871Z,101638.75
2022-10-17T21:09:31.319Z,101630.19
2022-10-17T21:11:58.828Z,101636.38
2022-10-17T21:14:26.644Z,101647.97
2022-10-17T21:16:55.440Z,101638.75
2022-10-17T21:19:34.370Z,101640.31
2022-10-17T21:22:05.498Z,101637.97
2022-10-17T21:24:33.431Z,101643.69
2022-10-17T21:27:01.075Z,101635.09
2022-10-17T21:29:28.767Z,101634.66
2022-10-17T21:31:56.283Z,101631.50
2022-10-17T21:34:25.257Z,101637.69
2022-10-17T21:36:58.895Z,101629.25
2022-10-17T21:39:55.639Z,101626.88
2022-10-17T21:42:25.767Z,101630.84
2022-10-17T21:45:04.771Z,101626.56
2022-10-17T21:48:12.542Z,101625.00
2022-10-17T21:50:44.808Z,101616.72
2022-10-17T21:53:16.196Z,101625.16
2022-10-17T21:55:45.236Z,101618.19
2022-10-17T21:58:15.451Z,101625.03
2022-10-17T22:00:45.144Z,101618.50
2022-10-17T22:03:16.515Z,101622.69
2022-10-17T22:05:47.112Z,101622.69
2022-10-17T22:08:15.993Z,101619.97
2022-10-17T22:10:48.352Z,101617.00
2022-10-17T22:13:30.933Z,101621.75
2022-10-17T22:16:12.364Z,101620.84
2022-10-17T22:18:41.533Z,101617.69
2022-10-17T22:21:19.578Z,101613.41
2022-10-17T22:23:54.666Z,101618.00
2022-10-17T22:26:22.526Z,101618.22
2022-10-17T22:28:50.261Z,101612.50
2022-10-17T22:31:18.164Z,101612.00
2022-10-17T22:33:45.891Z,101612.34
2022-10-17T22:36:13.888Z,101610.44
2022-10-17T22:38:41.390Z,101609.50
2022-10-17T22:41:09.141Z,101607.94
2022-10-17T22:43:36.773Z,101609.38
2022-10-17T22:46:07.004Z,101607.03
2022-10-17T22:48:35.419Z,101604.81
2022-10-17T22:51:03.260Z,101606.38
2022-10-17T22:53:30.872Z,101614.00
2022-10-17T22:56:14.846Z,101608.59
2022-10-17T22:58:42.447Z,101604.66
2022-10-17T23:01:18.981Z,101605.00
2022-10-17T23:03:47.314Z,101606.56
2022-10-17T23:06:17.311Z,101602.50
2022-10-17T23:08:44.976Z,101595.84
2022-10-17T23:11:13.084Z,101604.91
2022-10-17T23:13:43.659Z,101601.75
2022-10-17T23:16:11.478Z,101597.50
2022-10-17T23:18:39.580Z,101592.44
2022-10-17T23:21:10.542Z,101591.63
2022-10-17T23:23:38.254Z,101591.63
2022-10-17T23:26:13.922Z,101591.50
2022-10-17T23:28:42.728Z,101583.72
2022-10-17T23:31:20.086Z,101592.16
2022-10-17T23:33:49.343Z,101586.63
2022-10-17T23:36:19.802Z,101587.28
2022-10-17T23:38:52.748Z,101585.44
2022-10-17T23:41:22.947Z,101595.31
2022-10-17T23:43:51.237Z,101585.16
2022-10-17T23:46:19.206Z,101584.25
2022-10-17T23:48:46.609Z,101592.66
2022-10-17T23:51:14.363Z,101588.06
2022-10-17T23:53:41.896Z,101594.59
2022-10-17T23:56:11.349Z,101581.75
2022-10-17T23:58:39.480Z,101577.25
